Time;durP1;ratioP1;P1;durP2;ratioP2;P2;SDS_P1;SDS_P2;PMS_P1;PMS_P2;Temp;Humidity;BMP_temperature;BMP_pressure;BME280_temperature;BME280_humidity;BME280_pressure;Samples;Min_cycle;Max_cycle;Signal;HPM_P1;HPM_P2
2022/08/10 00:05:24;;;;;;;13.20;6.10;;;;;;;13.94;67.84;99612.59;433777;1267;108771;-40
2022/08/10 00:15:31;;;;;;;13.80;9.10;;;;;;;13.86;68.11;99609.05;433665;1268;98196;-39
2022/08/10 00:25:59;;;;;;;13.20;9.10;;;;;;;13.69;68.29;99611.79;433573;1268;97906;-39
2022/08/10 00:36:05;;;;;;;11.10;7.00;;;;;;;13.20;68.37;99608.33;433896;1268;111432;-41
2022/08/10 00:46:12;;;;;;;11.10;7.50;;;;;;;13.20;68.96;99612.98;433567;1268;108798;-41
2022/08/10 00:56:20;;;;;;;15.90;8.20;;;;;;;13.19;69.14;99607.60;433527;1268;97904;-40
2022/08/10 01:06:59;;;;;;;14.10;8.70;;;;;;;13.15;69.43;99605.99;434240;1261;108762;31
2022/08/10 01:17:15;;;;;;;13.80;9.00;;;;;;;13.01;69.39;99603.13;432556;1270;97910;-40
2022/08/10 01:27:24;;;;;;;14.80;9.80;;;;;;;12.86;69.80;99595.59;432942;1269;97500;-40
2022/08/10 01:37:38;;;;;;;14.80;9.80;;;;;;;12.79;70.14;99605.42;432950;1270;111154;-40
2022/08/10 01:58:25;;;;;;;10.20;8.10;;;;;;;12.67;70.07;99601.28;432818;1271;96872;-40
2022/08/10 02:08:34;;;;;;;16.30;9.50;;;;;;;12.56;70.30;99605.52;433100;1269;108862;-39
2022/08/10 02:18:42;;;;;;;12.40;8.80;;;;;;;12.58;70.63;99602.86;433243;1270;98342;-39
2022/08/10 02:28:52;;;;;;;12.60;9.30;;;;;;;12.66;71.01;99602.36;432738;1271;110326;-41
2022/08/10 02:39:04;;;;;;;12.60;8.30;;;;;;;12.66;71.06;99603.42;432984;1271;107944;-41
2022/08/10 02:49:18;;;;;;;11.00;9.00;;;;;;;12.58;71.21;99606.60;433297;1269;98516;-39
2022/08/10 02:59:23;;;;;;;14.20;10.10;;;;;;;12.56;71.42;99609.88;433352;1269;109651;-41
2022/08/10 03:09:35;;;;;;;14.70;9.10;;;;;;;12.37;71.44;99615.35;432977;1271;97958;-40
2022/08/10 03:19:44;;;;;;;14.30;10.00;;;;;;;12.20;71.46;99617.52;433259;1269;111321;-41
2022/08/10 03:30:12;;;;;;;19.90;10.90;;;;;;;12.10;71.46;99619.16;433472;1269;108183;-40
2022/08/10 03:40:41;;;;;;;22.00;10.60;;;;;;;12.06;71.82;99623.27;433206;1271;97313;-41
2022/08/10 03:50:54;;;;;;;19.50;10.60;;;;;;;12.15;71.89;99627.52;433142;1269;108836;-41
2022/08/10 04:01:01;;;;;;;20.00;10.70;;;;;;;12.25;71.83;99624.84;433190;1271;98009;-42
2022/08/10 04:11:07;;;;;;;19.60;13.10;;;;;;;12.38;72.00;99632.37;433480;1269;110727;-41
2022/08/10 04:21:16;;;;;;;15.90;10.80;;;;;;;13.06;72.04;99637.11;433125;1271;108795;-41
2022/08/10 04:41:32;;;;;;;20.20;10.40;;;;;;;16.69;70.08;99632.59;433365;1270;110691;-41
2022/08/10 04:51:40;;;;;;;20.00;10.30;;;;;;;18.19;68.64;99637.88;433340;1270;108801;-41
2022/08/10 05:01:46;;;;;;;18.40;11.70;;;;;;;19.50;67.81;99642.34;433113;1270;108776;-40
2022/08/10 05:12:13;;;;;;;14.20;9.20;;;;;;;20.68;66.27;99648.22;433127;1271;98180;-40
2022/08/10 05:22:20;;;;;;;16.60;9.60;;;;;;;20.82;64.83;99653.31;431594;1270;1382426;-39
2022/08/10 05:32:27;;;;;;;11.20;8.40;;;;;;;21.52;64.87;99656.88;433344;1269;108790;-40
2022/08/10 05:42:35;;;;;;;10.40;8.20;;;;;;;22.14;63.97;99657.19;433064;1269;108481;-41
2022/08/10 05:52:43;;;;;;;12.70;8.00;;;;;;;22.47;63.04;99658.34;433457;1269;97564;-42
2022/08/10 06:02:54;;;;;;;12.30;7.90;;;;;;;23.06;62.70;99662.90;433417;1270;109909;-40
2022/08/10 06:23:41;;;;;;;9.30;6.70;;;;;;;23.50;60.42;99675.09;433455;1269;97890;-41
2022/08/10 06:33:50;;;;;;;7.90;6.40;;;;;;;23.26;59.02;99678.32;433593;1268;97947;-40
2022/08/10 06:43:56;;;;;;;8.90;5.40;;;;;;;22.92;58.34;99678.77;433499;1269;111128;-41
2022/08/10 06:54:05;;;;;;;9.30;5.00;;;;;;;23.11;57.97;99676.73;432992;1270;107767;-42
2022/08/10 07:04:10;;;;;;;6.80;4.30;;;;;;;23.02;57.04;99675.78;433150;1269;97489;-41
2022/08/10 07:14:20;;;;;;;7.40;5.00;;;;;;;23.19;55.94;99672.69;433403;1271;111373;-40
2022/08/10 07:24:28;;;;;;;5.60;4.90;;;;;;;23.20;54.63;99678.62;433397;1269;107716;-40
2022/08/10 07:34:38;;;;;;;4.50;3.90;;;;;;;23.03;54.39;99674.43;433067;1269;108325;-40
2022/08/10 07:44:49;;;;;;;5.00;3.60;;;;;;;23.10;53.83;99674.63;433485;1269;97903;-42
2022/08/10 07:54:58;;;;;;;11.70;4.30;;;;;;;22.99;53.74;99670.42;432809;1270;111185;-42
2022/08/10 08:15:15;;;;;;;5.40;3.50;;;;;;;23.67;53.04;99679.52;433483;1269;97881;-40
2022/08/10 08:25:43;;;;;;;9.30;4.80;;;;;;;23.57;51.94;99676.46;433395;1271;97926;-41
2022/08/10 08:35:51;;;;;;;6.20;3.60;;;;;;;23.52;51.73;99673.34;433352;1269;111065;-41
2022/08/10 08:46:33;;;;;;;5.20;3.90;;;;;;;23.24;51.33;99669.51;433293;1270;107800;-42
2022/08/10 08:56:40;;;;;;;4.20;3.20;;;;;;;23.66;51.28;99656.52;432948;1270;97977;-42
2022/08/10 09:07:22;;;;;;;7.10;4.20;;;;;;;23.59;50.91;99657.12;433349;1269;97970;-40
2022/08/10 09:17:47;;;;;;;6.40;3.20;;;;;;;23.83;50.23;99655.61;433034;1269;110934;-41
2022/08/10 09:38:17;;;;;;;5.40;4.00;;;;;;;23.44;50.91;99653.14;433304;1271;97981;-39
2022/08/10 09:48:25;;;;;;;9.50;4.10;;;;;;;23.93;50.75;99647.41;433174;1269;97477;-40
2022/08/10 09:58:36;;;;;;;4.40;3.60;;;;;;;23.91;50.09;99642.25;433073;1269;111170;-41
2022/08/10 10:08:40;;;;;;;4.30;3.80;;;;;;;24.15;49.78;99638.98;432835;1269;108625;-41
2022/08/10 10:18:47;;;;;;;10.30;3.20;;;;;;;24.32;48.78;99628.11;433500;1269;109303;-40
2022/08/10 10:39:28;;;;;;;3.20;2.50;;;;;;;23.96;47.51;99619.50;433210;1270;97512;-40
2022/08/10 10:49:47;;;;;;;4.90;2.80;;;;;;;23.44;47.80;99606.38;433499;1269;108878;-40
2022/08/10 10:59:53;;;;;;;4.10;2.20;;;;;;;24.00;47.53;99591.96;433059;1270;97516;-41
2022/08/10 11:30:47;;;;;;;3.20;2.30;;;;;;;24.56;44.68;99571.97;433232;1270;108859;-40
2022/08/10 11:41:00;;;;;;;5.80;2.10;;;;;;;24.87;43.65;99571.05;433235;1269;108439;-41
2022/08/10 11:51:30;;;;;;;2.30;2.10;;;;;;;24.77;43.55;99569.78;433389;1269;97482;-40
2022/08/10 12:01:39;;;;;;;7.10;3.10;;;;;;;24.71;43.18;99565.73;433374;1270;111033;-40
2022/08/10 12:11:49;;;;;;;2.90;2.40;;;;;;;25.22;42.76;99559.06;433396;1270;108042;-40
2022/08/10 12:22:01;;;;;;;2.00;1.90;;;;;;;25.02;41.38;99555.61;433212;1269;97568;-41
2022/08/10 12:32:11;;;;;;;1.90;1.70;;;;;;;24.53;40.10;99551.13;433555;1270;97476;-40
2022/08/10 12:42:15;;;;;;;4.70;1.90;;;;;;;24.46;41.54;99536.61;433466;1270;111320;-40
2022/08/10 12:52:45;;;;;;;4.00;1.80;;;;;;;25.12;40.98;99527.31;433175;1269;108806;-40
2022/08/10 13:02:53;;;;;;;1.60;1.50;;;;;;;25.37;40.51;99519.17;433168;1269;106978;-39
2022/08/10 13:23:14;;;;;;;5.60;2.40;;;;;;;23.99;41.22;99508.58;433263;1269;111117;-40
2022/08/10 13:33:28;;;;;;;2.70;1.50;;;;;;;24.33;41.81;99494.09;433439;1269;108941;-40
2022/08/10 13:43:58;;;;;;;3.40;1.30;;;;;;;24.32;39.87;99497.33;433277;1269;108829;-39
2022/08/10 13:54:05;;;;;;;1.70;1.50;;;;;;;23.71;40.51;99487.55;433497;1271;97898;-40
2022/08/10 14:04:13;;;;;;;3.10;1.20;;;;;;;24.23;40.68;99484.21;433145;1271;110914;-39
2022/08/10 14:14:22;;;;;;;3.30;1.30;;;;;;;24.34;39.81;99471.09;433325;1270;108817;-40
2022/08/10 14:24:31;;;;;;;3.80;1.00;;;;;;;24.11;38.14;99468.15;433296;1269;108888;-41
2022/08/10 14:34:43;;;;;;;4.10;1.60;;;;;;;24.30;39.28;99468.47;433203;1271;97882;-41
2022/08/10 14:55:25;;;;;;;42.20;6.60;;;;;;;24.58;38.31;99475.55;434014;1270;108407;-40
2022/08/10 15:05:34;;;;;;;18.10;2.30;;;;;;;24.40;37.96;99468.02;433073;1271;108878;-41
2022/08/10 15:15:48;;;;;;;7.20;1.30;;;;;;;24.25;38.34;99460.18;432921;1270;97504;-39
2022/08/10 15:26:13;;;;;;;2.00;0.90;;;;;;;24.25;38.73;99453.55;433283;1270;111041;-39
2022/08/10 15:46:51;;;;;;;3.80;1.30;;;;;;;23.92;38.24;99452.08;432677;1270;97597;-40
2022/08/10 15:57:03;;;;;;;3.80;1.60;;;;;;;23.69;38.56;99444.34;432572;1270;110034;-40
2022/08/10 16:07:11;;;;;;;1.40;1.30;;;;;;;23.60;38.84;99445.98;432569;1269;107339;-40
2022/08/10 16:17:22;;;;;;;1.30;1.20;;;;;;;23.30;39.09;99444.48;432726;1271;107797;-40
2022/08/10 16:27:33;;;;;;;3.40;1.10;;;;;;;22.80;39.89;99443.94;433567;1271;96654;-40
2022/08/10 16:37:42;;;;;;;3.30;1.40;;;;;;;22.44;40.98;99441.21;433234;1270;111645;-40
2022/08/10 16:48:04;;;;;;;6.40;1.50;;;;;;;22.38;41.63;99442.48;432120;1271;108281;-40
2022/08/10 16:58:15;;;;;;;2.00;1.50;;;;;;;22.35;41.89;99439.70;432989;1270;98140;-41
2022/08/10 17:08:25;;;;;;;3.80;1.60;;;;;;;22.26;42.26;99440.34;433059;1271;111326;-40
2022/08/10 17:18:36;;;;;;;3.70;1.20;;;;;;;22.09;42.66;99442.19;432818;1271;108865;-41
2022/08/10 17:28:44;;;;;;;8.20;2.10;;;;;;;21.88;42.99;99437.79;431804;1270;1242979;-39
2022/08/10 17:38:54;;;;;;;27.90;3.20;;;;;;;21.61;43.53;99444.39;432741;1269;109993;-39
2022/08/10 17:49:05;;;;;;;3.10;1.90;;;;;;;21.29;44.10;99443.33;432937;1271;109443;-40
2022/08/10 18:09:24;;;;;;;11.70;2.20;;;;;;;20.44;45.66;99449.02;432613;1271;97987;-41
2022/08/10 18:29:42;;;;;;;5.10;2.00;;;;;;;19.69;46.90;99460.09;432889;1271;108746;-41
2022/08/10 18:39:54;;;;;;;5.20;1.80;;;;;;;19.21;47.61;99465.71;432746;1271;108876;-41
2022/08/10 18:50:00;;;;;;;5.10;2.00;;;;;;;18.66;48.75;99471.97;432849;1271;97593;-41
2022/08/10 19:00:06;;;;;;;7.40;2.00;;;;;;;18.16;49.80;99479.58;433015;1270;97915;-41
2022/08/10 19:10:15;;;;;;;7.10;3.30;;;;;;;17.79;50.53;99483.42;432816;1270;109032;-40
2022/08/10 19:20:21;;;;;;;12.20;4.90;;;;;;;17.48;51.46;99490.63;432587;1269;97968;-41
2022/08/10 19:30:30;;;;;;;9.40;5.60;;;;;;;17.14;52.20;99489.54;432817;1270;110989;-41
2022/08/10 19:40:35;;;;;;;16.50;7.00;;;;;;;16.93;53.48;99486.59;432985;1271;107250;-40
2022/08/10 19:50:56;;;;;;;17.10;7.70;;;;;;;16.84;54.40;99484.94;433105;1269;98564;-42
2022/08/10 20:11:16;;;;;;;20.30;8.70;;;;;;;16.32;55.58;99480.98;432905;1270;108674;-39
2022/08/10 20:21:44;;;;;;;16.20;7.10;;;;;;;16.14;56.29;99476.89;432896;1270;97966;-39
2022/08/10 20:31:57;;;;;;;13.00;6.40;;;;;;;15.98;56.73;99484.98;432561;1270;110917;-41
2022/08/10 20:52:24;;;;;;;19.50;10.40;;;;;;;15.66;57.93;99481.58;432719;1271;97491;-42
2022/08/10 21:02:34;;;;;;;26.10;10.80;;;;;;;15.40;58.26;99481.17;432953;1271;110018;-40
2022/08/10 21:12:54;;;;;;;36.20;10.10;;;;;;;15.28;58.99;99484.64;432607;1270;107611;-40
2022/08/10 23:28:16;;;;;;;16.60;8.70;;;;;;;13.66;64.24;99444.98;432946;1270;97485;-40
2022/08/10 23:38:48;;;;;;;13.60;7.40;;;;;;;13.58;64.60;99443.88;432553;1270;107154;-40
2022/08/10 23:49:16;;;;;;;9.80;6.90;;;;;;;13.61;65.01;99442.84;432659;1270;97906;-39
2022/08/10 23:59:26;;;;;;;11.00;8.00;;;;;;;13.54;65.18;99440.18;433201;1270;110915;-39
